HDA875 ZSPD-VHHH
Flight info
| Callsign | HDA875 |
|---|---|
| Flight time | 2h 16m |
| Altitude | 34100 |
| Route | HSN92D HSN W13 BEGMO M503 TOLAK/N0472F341 M503 LELIM V591 ABBEY |
| Aircraft | A320/M-SDE3FGHIRWY/LB1 |
Departure
| Time | 2026-04-30 09:52 |
|---|---|
| Airport | Shanghai Pudong International Airport (ZSPD) |
Arrival
| Time | 2026-04-30 12:08 |
|---|---|
| Airport | Hong Kong International Airport (VHHH) |
| Time | Latitude | Longitude | Altitude | Speed | Heading |
|---|---|---|---|---|---|
| 2026-04-30 09:07 | 31.15001 | 121.79709 | 21 ft | 0 kts | 72° |
| 2026-04-30 09:32 | 31.15000 | 121.79703 | 21 ft | 2 kts | 72° |
| 2026-04-30 09:32 | 31.14995 | 121.79686 | 21 ft | 2 kts | 72° |
| 2026-04-30 09:33 | 31.14991 | 121.79670 | 21 ft | 2 kts | 72° |
| 2026-04-30 09:33 | 31.14986 | 121.79653 | 21 ft | 2 kts | 72° |
| 2026-04-30 09:33 | 31.14982 | 121.79636 | 21 ft | 2 kts | 72° |
| 2026-04-30 09:33 | 31.14979 | 121.79619 | 21 ft | 2 kts | 97° |
| 2026-04-30 09:34 | 31.14983 | 121.79602 | 21 ft | 2 kts | 118° |
| 2026-04-30 09:34 | 31.14992 | 121.79588 | 21 ft | 2 kts | 141° |
| 2026-04-30 09:34 | 31.15002 | 121.79582 | 21 ft | 0 kts | 159° |
| 2026-04-30 09:34 | 31.15009 | 121.79579 | 21 ft | 0 kts | 162° |
| 2026-04-30 09:38 | 31.15008 | 121.79579 | 21 ft | 0 kts | 162° |
| 2026-04-30 09:39 | 31.14995 | 121.79584 | 21 ft | 3 kts | 161° |
| 2026-04-30 09:39 | 31.14965 | 121.79596 | 21 ft | 5 kts | 162° |
| 2026-04-30 09:39 | 31.14919 | 121.79614 | 21 ft | 8 kts | 161° |
| 2026-04-30 09:39 | 31.14858 | 121.79637 | 21 ft | 10 kts | 161° |
| 2026-04-30 09:40 | 31.14783 | 121.79666 | 21 ft | 12 kts | 161° |
| 2026-04-30 09:40 | 31.14698 | 121.79697 | 21 ft | 12 kts | 162° |
| 2026-04-30 09:40 | 31.14682 | 121.79703 | 21 ft | 2 kts | 162° |
| 2026-04-30 09:40 | 31.14658 | 121.79713 | 21 ft | 6 kts | 162° |
| 2026-04-30 09:41 | 31.14590 | 121.79738 | 21 ft | 11 kts | 162° |
| 2026-04-30 09:41 | 31.14508 | 121.79768 | 21 ft | 12 kts | 162° |
| 2026-04-30 09:41 | 31.14419 | 121.79801 | 21 ft | 14 kts | 163° |
| 2026-04-30 09:41 | 31.14322 | 121.79839 | 21 ft | 15 kts | 162° |
| 2026-04-30 09:42 | 31.14230 | 121.79871 | 21 ft | 2 kts | 162° |
| 2026-04-30 09:42 | 31.14206 | 121.79881 | 21 ft | 4 kts | 162° |
| 2026-04-30 09:42 | 31.14169 | 121.79894 | 21 ft | 6 kts | 162° |
| 2026-04-30 09:42 | 31.14122 | 121.79919 | 21 ft | 8 kts | 139° |
| 2026-04-30 09:43 | 31.14110 | 121.79939 | 21 ft | 0 kts | 113° |
| 2026-04-30 09:43 | 31.14109 | 121.79940 | 21 ft | 0 kts | 112° |
| 2026-04-30 09:43 | 31.14107 | 121.79951 | 21 ft | 2 kts | 102° |
| 2026-04-30 09:43 | 31.14107 | 121.79975 | 21 ft | 3 kts | 81° |
| 2026-04-30 09:44 | 31.14117 | 121.80008 | 21 ft | 4 kts | 91° |
| 2026-04-30 09:44 | 31.14116 | 121.80049 | 21 ft | 5 kts | 72° |
| 2026-04-30 09:44 | 31.14138 | 121.80095 | 21 ft | 7 kts | 64° |
| 2026-04-30 09:44 | 31.14156 | 121.80155 | 21 ft | 8 kts | 72° |
| 2026-04-30 09:45 | 31.14176 | 121.80226 | 21 ft | 6 kts | 71° |
| 2026-04-30 09:45 | 31.14199 | 121.80273 | 21 ft | 7 kts | 40° |
| 2026-04-30 09:45 | 31.14258 | 121.80276 | 21 ft | 11 kts | 3° |
| 2026-04-30 09:45 | 31.14309 | 121.80368 | 21 ft | 17 kts | 73° |
| 2026-04-30 09:46 | 31.14354 | 121.80526 | 21 ft | 23 kts | 69° |
| 2026-04-30 09:46 | 31.14407 | 121.80713 | 21 ft | 20 kts | 70° |
| 2026-04-30 09:46 | 31.14456 | 121.80893 | 21 ft | 26 kts | 73° |
| 2026-04-30 09:46 | 31.14514 | 121.81097 | 21 ft | 22 kts | 70° |
| 2026-04-30 09:47 | 31.14541 | 121.81196 | 21 ft | 7 kts | 72° |
| 2026-04-30 09:47 | 31.14578 | 121.81327 | 21 ft | 17 kts | 71° |
| 2026-04-30 09:47 | 31.14596 | 121.81413 | 21 ft | 17 kts | 94° |
| 2026-04-30 09:47 | 31.14505 | 121.81482 | 21 ft | 18 kts | 163° |
| 2026-04-30 09:48 | 31.14363 | 121.81538 | 21 ft | 24 kts | 162° |
| 2026-04-30 09:48 | 31.14182 | 121.81605 | 21 ft | 29 kts | 160° |
| 2026-04-30 09:48 | 31.13991 | 121.81677 | 21 ft | 28 kts | 162° |
| 2026-04-30 09:48 | 31.13807 | 121.81747 | 21 ft | 26 kts | 161° |
| 2026-04-30 09:49 | 31.13631 | 121.81812 | 21 ft | 25 kts | 162° |
| 2026-04-30 09:49 | 31.13463 | 121.81876 | 21 ft | 25 kts | 161° |
| 2026-04-30 09:49 | 31.13297 | 121.81939 | 21 ft | 24 kts | 163° |
| 2026-04-30 09:49 | 31.13134 | 121.82001 | 21 ft | 24 kts | 161° |
| 2026-04-30 09:50 | 31.13004 | 121.82050 | 21 ft | 10 kts | 163° |
| 2026-04-30 09:50 | 31.12933 | 121.82077 | 21 ft | 11 kts | 162° |
| 2026-04-30 09:50 | 31.12850 | 121.82108 | 21 ft | 12 kts | 162° |
| 2026-04-30 09:50 | 31.12761 | 121.82141 | 21 ft | 14 kts | 162° |
| 2026-04-30 09:51 | 31.12690 | 121.82198 | 21 ft | 12 kts | 101° |
| 2026-04-30 09:51 | 31.12711 | 121.82303 | 21 ft | 13 kts | 68° |
| 2026-04-30 09:51 | 31.12787 | 121.82351 | 21 ft | 13 kts | 350° |
| 2026-04-30 09:51 | 31.12897 | 121.82311 | 21 ft | 31 kts | 339° |
| 2026-04-30 09:52 | 31.13334 | 121.82149 | 22 ft | 101 kts | 344° |
| 2026-04-30 09:52 | 31.14204 | 121.81813 | 24 ft | 161 kts | 340° |
| 2026-04-30 09:52 | 31.15356 | 121.81395 | 533 ft | 175 kts | 347° |
| 2026-04-30 09:52 | 31.16549 | 121.81259 | 1303 ft | 175 kts | 3° |
| 2026-04-30 09:53 | 31.17770 | 121.81482 | 1790 ft | 185 kts | 10° |
| 2026-04-30 09:53 | 31.19081 | 121.81774 | 2203 ft | 193 kts | 8° |
| 2026-04-30 09:53 | 31.20398 | 121.82130 | 2707 ft | 197 kts | 12° |
| 2026-04-30 09:53 | 31.21736 | 121.82533 | 3106 ft | 205 kts | 11° |
| 2026-04-30 09:54 | 31.23241 | 121.82917 | 2756 ft | 238 kts | 8° |
| 2026-04-30 09:54 | 31.24919 | 121.83205 | 2835 ft | 245 kts | 1° |
| 2026-04-30 09:54 | 31.26658 | 121.83238 | 3011 ft | 250 kts | 359° |
| 2026-04-30 09:54 | 31.28422 | 121.83322 | 3720 ft | 255 kts | 2° |
| 2026-04-30 09:55 | 31.30147 | 121.83511 | 4656 ft | 254 kts | 4° |
| 2026-04-30 09:55 | 31.31896 | 121.83773 | 5508 ft | 255 kts | 6° |
| 2026-04-30 09:55 | 31.33655 | 121.84075 | 6325 ft | 258 kts | 6° |
| 2026-04-30 09:55 | 31.35391 | 121.84622 | 7099 ft | 265 kts | 25° |
| 2026-04-30 09:56 | 31.36797 | 121.86060 | 7815 ft | 280 kts | 51° |
| 2026-04-30 09:56 | 31.37550 | 121.88167 | 8505 ft | 293 kts | 73° |
| 2026-04-30 09:56 | 31.37942 | 121.90537 | 9146 ft | 300 kts | 76° |
| 2026-04-30 09:56 | 31.38267 | 121.92969 | 9744 ft | 308 kts | 84° |
| 2026-04-30 09:57 | 31.37915 | 121.95448 | 10309 ft | 320 kts | 112° |
| 2026-04-30 09:57 | 31.36636 | 121.97617 | 10656 ft | 333 kts | 141° |
| 2026-04-30 09:57 | 31.34624 | 121.98946 | 10955 ft | 340 kts | 166° |
| 2026-04-30 09:57 | 31.32307 | 121.99735 | 11251 ft | 354 kts | 169° |
| 2026-04-30 09:58 | 31.29866 | 122.00539 | 11503 ft | 369 kts | 168° |
| 2026-04-30 09:58 | 31.27374 | 122.01402 | 11764 ft | 384 kts | 167° |
| 2026-04-30 09:58 | 31.24775 | 122.02341 | 12251 ft | 390 kts | 167° |
| 2026-04-30 09:58 | 31.22194 | 122.03300 | 12836 ft | 393 kts | 167° |
| 2026-04-30 09:59 | 31.16944 | 122.05266 | 13984 ft | 398 kts | 167° |
| 2026-04-30 09:59 | 31.12090 | 122.08636 | 15013 ft | 420 kts | 140° |
| 2026-04-30 10:00 | 31.08205 | 122.13818 | 15933 ft | 432 kts | 134° |
| 2026-04-30 10:00 | 31.06265 | 122.16528 | 16416 ft | 435 kts | 135° |
| 2026-04-30 10:01 | 31.02327 | 122.21886 | 17423 ft | 438 kts | 137° |
| 2026-04-30 10:01 | 31.00094 | 122.24281 | 17849 ft | 431 kts | 151° |
| 2026-04-30 10:01 | 30.97516 | 122.25993 | 18279 ft | 420 kts | 166° |
| 2026-04-30 10:02 | 30.92006 | 122.28077 | 19173 ft | 416 kts | 173° |
| 2026-04-30 10:02 | 30.89257 | 122.29032 | 19579 ft | 419 kts | 173° |
| 2026-04-30 10:02 | 30.86427 | 122.30032 | 19989 ft | 422 kts | 173° |
| 2026-04-30 10:02 | 30.83630 | 122.31038 | 20436 ft | 424 kts | 173° |
| 2026-04-30 10:03 | 30.80805 | 122.32064 | 20840 ft | 426 kts | 173° |
| 2026-04-30 10:03 | 30.77995 | 122.33089 | 21267 ft | 427 kts | 173° |
| 2026-04-30 10:03 | 30.75153 | 122.34129 | 21650 ft | 429 kts | 173° |
| 2026-04-30 10:03 | 30.72241 | 122.35192 | 21964 ft | 433 kts | 173° |
| 2026-04-30 10:04 | 30.69435 | 122.36220 | 22390 ft | 433 kts | 174° |
| 2026-04-30 10:04 | 30.66507 | 122.37292 | 22787 ft | 434 kts | 174° |
| 2026-04-30 10:04 | 30.63621 | 122.38348 | 23132 ft | 436 kts | 174° |
| 2026-04-30 10:04 | 30.60722 | 122.39272 | 23435 ft | 430 kts | 179° |
| 2026-04-30 10:05 | 30.57806 | 122.39792 | 23815 ft | 421 kts | 186° |
| 2026-04-30 10:05 | 30.54913 | 122.39914 | 24169 ft | 411 kts | 193° |
| 2026-04-30 10:05 | 30.52041 | 122.39782 | 24460 ft | 412 kts | 194° |
| 2026-04-30 10:05 | 30.49184 | 122.39606 | 24744 ft | 414 kts | 194° |
| 2026-04-30 10:06 | 30.46274 | 122.39425 | 25116 ft | 415 kts | 194° |
| 2026-04-30 10:06 | 30.43396 | 122.39249 | 25464 ft | 416 kts | 194° |
| 2026-04-30 10:06 | 30.40511 | 122.39082 | 25836 ft | 416 kts | 195° |
| 2026-04-30 10:06 | 30.37602 | 122.38911 | 26063 ft | 420 kts | 195° |
| 2026-04-30 10:07 | 30.34671 | 122.38736 | 26338 ft | 422 kts | 195° |
| 2026-04-30 10:07 | 30.31757 | 122.38565 | 26645 ft | 423 kts | 194° |
| 2026-04-30 10:07 | 30.28814 | 122.38395 | 26964 ft | 423 kts | 194° |
| 2026-04-30 10:07 | 30.25864 | 122.38228 | 27284 ft | 424 kts | 194° |
| 2026-04-30 10:08 | 30.22919 | 122.38058 | 27579 ft | 424 kts | 195° |
| 2026-04-30 10:08 | 30.19958 | 122.37888 | 27805 ft | 426 kts | 195° |
| 2026-04-30 10:08 | 30.16998 | 122.37717 | 28145 ft | 425 kts | 195° |
| 2026-04-30 10:08 | 30.14056 | 122.37552 | 28568 ft | 422 kts | 195° |
| 2026-04-30 10:09 | 30.11115 | 122.37387 | 29029 ft | 418 kts | 196° |
| 2026-04-30 10:09 | 30.08210 | 122.37221 | 29354 ft | 416 kts | 196° |
| 2026-04-30 10:09 | 30.05329 | 122.37051 | 29650 ft | 415 kts | 196° |
| 2026-04-30 10:09 | 30.02469 | 122.36884 | 29988 ft | 414 kts | 197° |
| 2026-04-30 10:10 | 29.99600 | 122.36723 | 30225 ft | 415 kts | 196° |
| 2026-04-30 10:10 | 29.96658 | 122.36681 | 30418 ft | 422 kts | 193° |
| 2026-04-30 10:10 | 29.93693 | 122.36820 | 30771 ft | 426 kts | 190° |
| 2026-04-30 10:10 | 29.90723 | 122.37141 | 31121 ft | 429 kts | 187° |
| 2026-04-30 10:11 | 29.87760 | 122.37637 | 31372 ft | 435 kts | 184° |
| 2026-04-30 10:11 | 29.84769 | 122.38303 | 31611 ft | 438 kts | 183° |
| 2026-04-30 10:11 | 29.81784 | 122.38999 | 31825 ft | 440 kts | 183° |
| 2026-04-30 10:11 | 29.78766 | 122.39702 | 32082 ft | 439 kts | 182° |
| 2026-04-30 10:12 | 29.75795 | 122.40399 | 32436 ft | 437 kts | 183° |
| 2026-04-30 10:12 | 29.72784 | 122.41103 | 32692 ft | 437 kts | 183° |
| 2026-04-30 10:12 | 29.69824 | 122.41791 | 32910 ft | 437 kts | 183° |
| 2026-04-30 10:12 | 29.66825 | 122.42487 | 33064 ft | 439 kts | 183° |
| 2026-04-30 10:13 | 29.63822 | 122.43185 | 33285 ft | 440 kts | 183° |
| 2026-04-30 10:13 | 29.60789 | 122.43887 | 33493 ft | 441 kts | 182° |
| 2026-04-30 10:13 | 29.57762 | 122.44591 | 33763 ft | 440 kts | 182° |
| 2026-04-30 10:13 | 29.54780 | 122.45286 | 34010 ft | 440 kts | 182° |
| 2026-04-30 10:14 | 29.51779 | 122.45983 | 34166 ft | 439 kts | 182° |
| 2026-04-30 10:14 | 29.42735 | 122.48079 | 34173 ft | 442 kts | 182° |
| 2026-04-30 10:15 | 29.36704 | 122.49479 | 34173 ft | 439 kts | 182° |
| 2026-04-30 10:15 | 29.30745 | 122.50855 | 34171 ft | 437 kts | 182° |
| 2026-04-30 10:16 | 29.24813 | 122.51665 | 34170 ft | 419 kts | 193° |
| 2026-04-30 10:17 | 29.16413 | 122.50412 | 34171 ft | 395 kts | 207° |
| 2026-04-30 10:17 | 29.11394 | 122.48215 | 34171 ft | 381 kts | 217° |
| 2026-04-30 10:17 | 29.09033 | 122.46851 | 34173 ft | 381 kts | 217° |
| 2026-04-30 10:18 | 29.04296 | 122.44086 | 34176 ft | 379 kts | 217° |
| 2026-04-30 10:19 | 28.97234 | 122.39945 | 34180 ft | 380 kts | 217° |
| 2026-04-30 10:19 | 28.92503 | 122.37169 | 34179 ft | 382 kts | 217° |
| 2026-04-30 10:20 | 28.87775 | 122.34398 | 34180 ft | 383 kts | 217° |
| 2026-04-30 10:20 | 28.80652 | 122.30219 | 34178 ft | 383 kts | 216° |
| 2026-04-30 10:21 | 28.75883 | 122.27433 | 34179 ft | 386 kts | 217° |
| 2026-04-30 10:21 | 28.71090 | 122.24625 | 34179 ft | 388 kts | 217° |
| 2026-04-30 10:22 | 28.66298 | 122.21823 | 34178 ft | 388 kts | 217° |
| 2026-04-30 10:22 | 28.61490 | 122.19016 | 34177 ft | 388 kts | 217° |
| 2026-04-30 10:23 | 28.56695 | 122.16220 | 34174 ft | 389 kts | 217° |
| 2026-04-30 10:23 | 28.51848 | 122.13396 | 34176 ft | 391 kts | 216° |
| 2026-04-30 10:24 | 28.47028 | 122.10589 | 34174 ft | 390 kts | 216° |
| 2026-04-30 10:24 | 28.42156 | 122.07758 | 34179 ft | 391 kts | 216° |
| 2026-04-30 10:25 | 28.37310 | 122.04942 | 34178 ft | 390 kts | 217° |
| 2026-04-30 10:25 | 28.32449 | 122.02123 | 34179 ft | 393 kts | 216° |
| 2026-04-30 10:26 | 28.27585 | 121.99297 | 34182 ft | 393 kts | 216° |
| 2026-04-30 10:26 | 28.22695 | 121.96468 | 34183 ft | 394 kts | 216° |
| 2026-04-30 10:27 | 28.17817 | 121.93644 | 34185 ft | 395 kts | 215° |
| 2026-04-30 10:27 | 28.12920 | 121.90816 | 34185 ft | 396 kts | 216° |
| 2026-04-30 10:28 | 28.07984 | 121.87962 | 34187 ft | 396 kts | 216° |
| 2026-04-30 10:28 | 28.03078 | 121.85132 | 34191 ft | 397 kts | 215° |
| 2026-04-30 10:29 | 27.98166 | 121.82264 | 34190 ft | 395 kts | 217° |
| 2026-04-30 10:29 | 27.93360 | 121.79282 | 34189 ft | 395 kts | 217° |
| 2026-04-30 10:30 | 27.88532 | 121.76282 | 34190 ft | 396 kts | 217° |
| 2026-04-30 10:30 | 27.83689 | 121.73284 | 34188 ft | 397 kts | 217° |
| 2026-04-30 10:31 | 27.78862 | 121.70300 | 34186 ft | 398 kts | 217° |
| 2026-04-30 10:31 | 27.73972 | 121.67281 | 34185 ft | 399 kts | 217° |
| 2026-04-30 10:32 | 27.69087 | 121.64267 | 34185 ft | 400 kts | 217° |
| 2026-04-30 10:32 | 27.64217 | 121.61267 | 34187 ft | 401 kts | 217° |
| 2026-04-30 10:33 | 27.59287 | 121.58231 | 34188 ft | 403 kts | 217° |
| 2026-04-30 10:33 | 27.54360 | 121.55222 | 34189 ft | 403 kts | 216° |
| 2026-04-30 10:34 | 27.49440 | 121.52225 | 34191 ft | 402 kts | 216° |
| 2026-04-30 10:34 | 27.44505 | 121.49213 | 34190 ft | 403 kts | 217° |
| 2026-04-30 10:35 | 27.39589 | 121.46217 | 34190 ft | 404 kts | 216° |
| 2026-04-30 10:35 | 27.34614 | 121.43183 | 34192 ft | 404 kts | 216° |
| 2026-04-30 10:36 | 27.29688 | 121.40184 | 34191 ft | 405 kts | 216° |
| 2026-04-30 10:36 | 27.24710 | 121.37157 | 34192 ft | 407 kts | 216° |
| 2026-04-30 10:37 | 27.19681 | 121.34109 | 34196 ft | 408 kts | 216° |
| 2026-04-30 10:37 | 27.14682 | 121.31082 | 34190 ft | 409 kts | 216° |
| 2026-04-30 10:38 | 27.09698 | 121.28065 | 34192 ft | 409 kts | 216° |
| 2026-04-30 10:38 | 27.04642 | 121.25005 | 34194 ft | 411 kts | 215° |
| 2026-04-30 10:39 | 26.99609 | 121.21960 | 34190 ft | 411 kts | 215° |
| 2026-04-30 10:39 | 26.94581 | 121.18921 | 34191 ft | 412 kts | 215° |
| 2026-04-30 10:40 | 26.89544 | 121.15880 | 34192 ft | 414 kts | 215° |
| 2026-04-30 10:40 | 26.84466 | 121.12815 | 34192 ft | 414 kts | 215° |
| 2026-04-30 10:41 | 26.79392 | 121.09753 | 34191 ft | 415 kts | 215° |
| 2026-04-30 10:41 | 26.74316 | 121.06700 | 34190 ft | 415 kts | 215° |
| 2026-04-30 10:42 | 26.69210 | 121.03634 | 34191 ft | 415 kts | 215° |
| 2026-04-30 10:42 | 26.64148 | 121.00592 | 34189 ft | 415 kts | 215° |
| 2026-04-30 10:43 | 26.59058 | 120.97532 | 34190 ft | 416 kts | 214° |
| 2026-04-30 10:43 | 26.53942 | 120.94462 | 34189 ft | 417 kts | 215° |
| 2026-04-30 10:44 | 26.48847 | 120.91402 | 34189 ft | 418 kts | 215° |
| 2026-04-30 10:44 | 26.43704 | 120.88318 | 34189 ft | 419 kts | 215° |
| 2026-04-30 10:45 | 26.38577 | 120.85248 | 34190 ft | 420 kts | 214° |
| 2026-04-30 10:45 | 26.33434 | 120.82170 | 34190 ft | 420 kts | 214° |
| 2026-04-30 10:46 | 26.28284 | 120.79093 | 34190 ft | 419 kts | 214° |
| 2026-04-30 10:46 | 26.23135 | 120.76019 | 34189 ft | 421 kts | 214° |
| 2026-04-30 10:47 | 26.17965 | 120.72933 | 34189 ft | 422 kts | 214° |
| 2026-04-30 10:47 | 26.12750 | 120.69826 | 34189 ft | 424 kts | 214° |
| 2026-04-30 10:48 | 26.07558 | 120.66735 | 34189 ft | 423 kts | 214° |
| 2026-04-30 10:48 | 26.02358 | 120.63642 | 34189 ft | 424 kts | 214° |
| 2026-04-30 10:49 | 25.97146 | 120.60545 | 34186 ft | 425 kts | 214° |
| 2026-04-30 10:49 | 25.91919 | 120.57443 | 34189 ft | 425 kts | 214° |
| 2026-04-30 10:50 | 25.86710 | 120.54353 | 34184 ft | 424 kts | 214° |
| 2026-04-30 10:50 | 25.81517 | 120.51276 | 34184 ft | 423 kts | 214° |
| 2026-04-30 10:51 | 25.76285 | 120.48176 | 34178 ft | 425 kts | 214° |
| 2026-04-30 10:51 | 25.71079 | 120.45092 | 34174 ft | 426 kts | 214° |
| 2026-04-30 10:52 | 25.65834 | 120.41988 | 34174 ft | 425 kts | 214° |
| 2026-04-30 10:52 | 25.60831 | 120.38576 | 34172 ft | 422 kts | 220° |
| 2026-04-30 10:53 | 25.56114 | 120.34729 | 34173 ft | 421 kts | 221° |
| 2026-04-30 10:53 | 25.51427 | 120.30838 | 34172 ft | 422 kts | 221° |
| 2026-04-30 10:54 | 25.46751 | 120.26955 | 34164 ft | 422 kts | 221° |
| 2026-04-30 10:54 | 25.42038 | 120.23045 | 34164 ft | 422 kts | 221° |
| 2026-04-30 10:55 | 25.37359 | 120.19166 | 34165 ft | 423 kts | 221° |
| 2026-04-30 10:55 | 25.32626 | 120.15245 | 34163 ft | 424 kts | 221° |
| 2026-04-30 10:56 | 25.27913 | 120.11344 | 34160 ft | 424 kts | 221° |
| 2026-04-30 10:56 | 25.23188 | 120.07436 | 34154 ft | 425 kts | 221° |
| 2026-04-30 10:57 | 25.18444 | 120.03514 | 34160 ft | 426 kts | 221° |
| 2026-04-30 10:57 | 25.13712 | 119.99609 | 34158 ft | 426 kts | 221° |
| 2026-04-30 10:58 | 25.08972 | 119.95696 | 34152 ft | 425 kts | 221° |
| 2026-04-30 10:58 | 25.04223 | 119.91768 | 34152 ft | 426 kts | 222° |
| 2026-04-30 10:59 | 24.99765 | 119.87540 | 34147 ft | 424 kts | 227° |
| 2026-04-30 10:59 | 24.95715 | 119.82835 | 34144 ft | 421 kts | 232° |
| 2026-04-30 11:00 | 24.91910 | 119.77964 | 34141 ft | 421 kts | 232° |
| 2026-04-30 11:00 | 24.88078 | 119.73058 | 34142 ft | 421 kts | 232° |
| 2026-04-30 11:01 | 24.84260 | 119.68172 | 34144 ft | 422 kts | 232° |
| 2026-04-30 11:01 | 24.80442 | 119.63288 | 34143 ft | 422 kts | 232° |
| 2026-04-30 11:02 | 24.76614 | 119.58394 | 34143 ft | 423 kts | 232° |
| 2026-04-30 11:02 | 24.72776 | 119.53496 | 34141 ft | 423 kts | 232° |
| 2026-04-30 11:03 | 24.68915 | 119.48572 | 34138 ft | 424 kts | 232° |
| 2026-04-30 11:04 | 24.63154 | 119.41235 | 34139 ft | 423 kts | 232° |
| 2026-04-30 11:04 | 24.59321 | 119.36359 | 34138 ft | 423 kts | 232° |
| 2026-04-30 11:05 | 24.55482 | 119.31482 | 34137 ft | 424 kts | 232° |
| 2026-04-30 11:05 | 24.51620 | 119.26578 | 34135 ft | 424 kts | 232° |
| 2026-04-30 11:06 | 24.47770 | 119.21695 | 34133 ft | 423 kts | 232° |
| 2026-04-30 11:06 | 24.43914 | 119.16811 | 34132 ft | 424 kts | 232° |
| 2026-04-30 11:07 | 24.40050 | 119.11922 | 34136 ft | 424 kts | 232° |
| 2026-04-30 11:07 | 24.36195 | 119.07048 | 34132 ft | 424 kts | 232° |
| 2026-04-30 11:08 | 24.32340 | 119.02177 | 34135 ft | 424 kts | 232° |
| 2026-04-30 11:08 | 24.28473 | 118.97297 | 34132 ft | 423 kts | 232° |
| 2026-04-30 11:09 | 24.24615 | 118.92432 | 34133 ft | 424 kts | 232° |
| 2026-04-30 11:09 | 24.20763 | 118.87582 | 34135 ft | 424 kts | 232° |
| 2026-04-30 11:10 | 24.16887 | 118.82709 | 34134 ft | 424 kts | 232° |
| 2026-04-30 11:10 | 24.13007 | 118.77831 | 34134 ft | 425 kts | 232° |
| 2026-04-30 11:11 | 24.09131 | 118.72963 | 34131 ft | 425 kts | 232° |
| 2026-04-30 11:11 | 24.05229 | 118.68069 | 34131 ft | 425 kts | 232° |
| 2026-04-30 11:12 | 24.01344 | 118.63197 | 34127 ft | 426 kts | 232° |
| 2026-04-30 11:12 | 23.97451 | 118.58321 | 34124 ft | 425 kts | 232° |
| 2026-04-30 11:13 | 23.93573 | 118.53467 | 34127 ft | 425 kts | 231° |
| 2026-04-30 11:13 | 23.89694 | 118.48616 | 34124 ft | 425 kts | 232° |
| 2026-04-30 11:14 | 23.85778 | 118.43733 | 34123 ft | 426 kts | 231° |
| 2026-04-30 11:14 | 23.81839 | 118.38886 | 34125 ft | 426 kts | 231° |
| 2026-04-30 11:15 | 23.77900 | 118.34047 | 34126 ft | 426 kts | 231° |
| 2026-04-30 11:15 | 23.73985 | 118.29235 | 34123 ft | 426 kts | 231° |
| 2026-04-30 11:16 | 23.70039 | 118.24386 | 34123 ft | 426 kts | 231° |
| 2026-04-30 11:16 | 23.66118 | 118.19570 | 34122 ft | 426 kts | 231° |
| 2026-04-30 11:17 | 23.62192 | 118.14752 | 34121 ft | 426 kts | 231° |
| 2026-04-30 11:17 | 23.58241 | 118.09910 | 34122 ft | 426 kts | 231° |
| 2026-04-30 11:18 | 23.54309 | 118.05094 | 34118 ft | 426 kts | 231° |
| 2026-04-30 11:18 | 23.48408 | 117.97874 | 34118 ft | 426 kts | 231° |
| 2026-04-30 11:19 | 23.44449 | 117.93035 | 34114 ft | 426 kts | 231° |
| 2026-04-30 11:19 | 23.40518 | 117.88238 | 34113 ft | 426 kts | 231° |
| 2026-04-30 11:20 | 23.36565 | 117.83417 | 34114 ft | 427 kts | 231° |
| 2026-04-30 11:20 | 23.32617 | 117.78606 | 34112 ft | 427 kts | 231° |
| 2026-04-30 11:21 | 23.28662 | 117.73795 | 34107 ft | 427 kts | 231° |
| 2026-04-30 11:21 | 23.24700 | 117.68973 | 34022 ft | 427 kts | 231° |
| 2026-04-30 11:22 | 23.20746 | 117.64166 | 34011 ft | 427 kts | 231° |
| 2026-04-30 11:22 | 23.16794 | 117.59365 | 34012 ft | 428 kts | 231° |
| 2026-04-30 11:23 | 23.12826 | 117.54546 | 34007 ft | 428 kts | 231° |
| 2026-04-30 11:24 | 23.06873 | 117.47292 | 34006 ft | 428 kts | 232° |
| 2026-04-30 11:24 | 23.02969 | 117.42439 | 34005 ft | 429 kts | 232° |
| 2026-04-30 11:25 | 22.97075 | 117.35130 | 34005 ft | 431 kts | 232° |
| 2026-04-30 11:26 | 22.89692 | 117.24947 | 34005 ft | 429 kts | 236° |
| 2026-04-30 11:26 | 22.86176 | 117.19716 | 34000 ft | 429 kts | 236° |
| 2026-04-30 11:27 | 22.82647 | 117.14466 | 34001 ft | 430 kts | 236° |
| 2026-04-30 11:27 | 22.79135 | 117.09248 | 34002 ft | 431 kts | 236° |
| 2026-04-30 11:28 | 22.74199 | 117.01137 | 33998 ft | 428 kts | 243° |
| 2026-04-30 11:29 | 22.71578 | 116.95393 | 34001 ft | 428 kts | 248° |
| 2026-04-30 11:29 | 22.68246 | 116.86422 | 34000 ft | 428 kts | 250° |
| 2026-04-30 11:30 | 22.64960 | 116.77500 | 34000 ft | 428 kts | 250° |
| 2026-04-30 11:31 | 22.62755 | 116.71523 | 34000 ft | 428 kts | 250° |
| 2026-04-30 11:31 | 22.60547 | 116.65545 | 34001 ft | 428 kts | 250° |
| 2026-04-30 11:32 | 22.58348 | 116.59598 | 34002 ft | 428 kts | 250° |
| 2026-04-30 11:32 | 22.56126 | 116.53597 | 33999 ft | 428 kts | 250° |
| 2026-04-30 11:33 | 22.52819 | 116.44679 | 34002 ft | 428 kts | 250° |
| 2026-04-30 11:33 | 22.50608 | 116.38733 | 34004 ft | 428 kts | 250° |
| 2026-04-30 11:34 | 22.48385 | 116.32759 | 34005 ft | 428 kts | 249° |
| 2026-04-30 11:34 | 22.46175 | 116.26821 | 34008 ft | 428 kts | 249° |
| 2026-04-30 11:35 | 22.43954 | 116.20865 | 34011 ft | 428 kts | 249° |
| 2026-04-30 11:35 | 22.41726 | 116.14897 | 34013 ft | 428 kts | 249° |
| 2026-04-30 11:36 | 22.39515 | 116.08982 | 34013 ft | 427 kts | 249° |
| 2026-04-30 11:36 | 22.37294 | 116.03042 | 34017 ft | 427 kts | 249° |
| 2026-04-30 11:37 | 22.35059 | 115.97073 | 33888 ft | 427 kts | 249° |
| 2026-04-30 11:37 | 22.33956 | 115.94128 | 33450 ft | 425 kts | 249° |
| 2026-04-30 11:37 | 22.32845 | 115.91170 | 32838 ft | 423 kts | 249° |
| 2026-04-30 11:38 | 22.31789 | 115.88236 | 32174 ft | 422 kts | 252° |
| 2026-04-30 11:38 | 22.30906 | 115.85222 | 31438 ft | 422 kts | 255° |
| 2026-04-30 11:38 | 22.30220 | 115.82175 | 30646 ft | 424 kts | 259° |
| 2026-04-30 11:38 | 22.29722 | 115.79015 | 29793 ft | 426 kts | 263° |
| 2026-04-30 11:39 | 22.29433 | 115.75847 | 28942 ft | 429 kts | 266° |
| 2026-04-30 11:39 | 22.29313 | 115.72644 | 28087 ft | 432 kts | 268° |
| 2026-04-30 11:39 | 22.29234 | 115.69422 | 27312 ft | 431 kts | 268° |
| 2026-04-30 11:39 | 22.29154 | 115.66204 | 26794 ft | 425 kts | 268° |
| 2026-04-30 11:40 | 22.29071 | 115.63055 | 26264 ft | 420 kts | 268° |
| 2026-04-30 11:40 | 22.28986 | 115.59935 | 25731 ft | 415 kts | 268° |
| 2026-04-30 11:40 | 22.28900 | 115.56843 | 25197 ft | 410 kts | 268° |
| 2026-04-30 11:40 | 22.28816 | 115.53809 | 24674 ft | 406 kts | 268° |
| 2026-04-30 11:41 | 22.28733 | 115.50795 | 24145 ft | 402 kts | 268° |
| 2026-04-30 11:41 | 22.28650 | 115.47800 | 23628 ft | 398 kts | 268° |
| 2026-04-30 11:41 | 22.28567 | 115.44822 | 23104 ft | 394 kts | 268° |
| 2026-04-30 11:41 | 22.28486 | 115.41910 | 22580 ft | 391 kts | 268° |
| 2026-04-30 11:42 | 22.28403 | 115.38961 | 22068 ft | 388 kts | 268° |
| 2026-04-30 11:42 | 22.28321 | 115.36103 | 21551 ft | 387 kts | 268° |
| 2026-04-30 11:42 | 22.28237 | 115.33203 | 21018 ft | 385 kts | 268° |
| 2026-04-30 11:42 | 22.28149 | 115.30314 | 20478 ft | 384 kts | 268° |
| 2026-04-30 11:43 | 22.28059 | 115.27435 | 19931 ft | 384 kts | 268° |
| 2026-04-30 11:43 | 22.27969 | 115.24564 | 19377 ft | 384 kts | 268° |
| 2026-04-30 11:43 | 22.27879 | 115.21699 | 18824 ft | 383 kts | 268° |
| 2026-04-30 11:43 | 22.27791 | 115.18873 | 18277 ft | 382 kts | 268° |
| 2026-04-30 11:44 | 22.27701 | 115.15993 | 17712 ft | 382 kts | 268° |
| 2026-04-30 11:44 | 22.27612 | 115.13136 | 17149 ft | 381 kts | 268° |
| 2026-04-30 11:44 | 22.27522 | 115.10291 | 16598 ft | 380 kts | 268° |
| 2026-04-30 11:44 | 22.27435 | 115.07491 | 16052 ft | 378 kts | 268° |
| 2026-04-30 11:45 | 22.27344 | 115.04645 | 15496 ft | 376 kts | 268° |
| 2026-04-30 11:45 | 22.27257 | 115.01854 | 14948 ft | 375 kts | 268° |
| 2026-04-30 11:45 | 22.27168 | 114.99065 | 14397 ft | 373 kts | 268° |
| 2026-04-30 11:45 | 22.27078 | 114.96265 | 13845 ft | 371 kts | 268° |
| 2026-04-30 11:46 | 22.26989 | 114.93527 | 13301 ft | 369 kts | 268° |
| 2026-04-30 11:46 | 22.26900 | 114.90784 | 12753 ft | 367 kts | 268° |
| 2026-04-30 11:46 | 22.26811 | 114.88023 | 12196 ft | 365 kts | 268° |
| 2026-04-30 11:46 | 22.26721 | 114.85301 | 11650 ft | 362 kts | 268° |
| 2026-04-30 11:47 | 22.26632 | 114.82626 | 11329 ft | 353 kts | 268° |
| 2026-04-30 11:47 | 22.26510 | 114.80036 | 11112 ft | 342 kts | 263° |
| 2026-04-30 11:47 | 22.25766 | 114.77675 | 10927 ft | 332 kts | 240° |
| 2026-04-30 11:47 | 22.24296 | 114.75818 | 10946 ft | 321 kts | 226° |
| 2026-04-30 11:48 | 22.22651 | 114.74152 | 10970 ft | 320 kts | 226° |
| 2026-04-30 11:48 | 22.21036 | 114.72514 | 10979 ft | 320 kts | 226° |
| 2026-04-30 11:48 | 22.19430 | 114.70879 | 10819 ft | 316 kts | 226° |
| 2026-04-30 11:48 | 22.17826 | 114.69239 | 10450 ft | 312 kts | 226° |
| 2026-04-30 11:49 | 22.16288 | 114.67664 | 10296 ft | 303 kts | 226° |
| 2026-04-30 11:49 | 22.14783 | 114.66119 | 10135 ft | 294 kts | 226° |
| 2026-04-30 11:49 | 22.13328 | 114.64623 | 9978 ft | 285 kts | 226° |
| 2026-04-30 11:49 | 22.11898 | 114.63155 | 9749 ft | 280 kts | 226° |
| 2026-04-30 11:50 | 22.10494 | 114.61710 | 9431 ft | 279 kts | 226° |
| 2026-04-30 11:50 | 22.09087 | 114.60263 | 9100 ft | 277 kts | 226° |
| 2026-04-30 11:50 | 22.07694 | 114.58833 | 8773 ft | 276 kts | 226° |
| 2026-04-30 11:50 | 22.06310 | 114.57413 | 8433 ft | 276 kts | 226° |
| 2026-04-30 11:51 | 22.04925 | 114.55995 | 8095 ft | 276 kts | 226° |
| 2026-04-30 11:51 | 22.03539 | 114.54571 | 7754 ft | 275 kts | 227° |
| 2026-04-30 11:51 | 22.02316 | 114.53002 | 7405 ft | 273 kts | 239° |
| 2026-04-30 11:51 | 22.01428 | 114.51187 | 7069 ft | 271 kts | 248° |
| 2026-04-30 11:52 | 22.00707 | 114.49328 | 6744 ft | 271 kts | 249° |
| 2026-04-30 11:52 | 22.00004 | 114.47456 | 6417 ft | 270 kts | 249° |
| 2026-04-30 11:52 | 21.99350 | 114.45568 | 6078 ft | 269 kts | 258° |
| 2026-04-30 11:52 | 21.99349 | 114.43571 | 5716 ft | 267 kts | 281° |
| 2026-04-30 11:53 | 21.99740 | 114.41623 | 5392 ft | 267 kts | 284° |
| 2026-04-30 11:53 | 22.00162 | 114.39687 | 5051 ft | 267 kts | 284° |
| 2026-04-30 11:53 | 22.00562 | 114.37737 | 4725 ft | 267 kts | 283° |
| 2026-04-30 11:53 | 22.00941 | 114.35767 | 4403 ft | 267 kts | 282° |
| 2026-04-30 11:54 | 22.01297 | 114.33810 | 4095 ft | 267 kts | 282° |
| 2026-04-30 11:54 | 22.01642 | 114.31853 | 3790 ft | 266 kts | 282° |
| 2026-04-30 11:54 | 22.01980 | 114.29894 | 3486 ft | 266 kts | 282° |
| 2026-04-30 11:54 | 22.02313 | 114.27943 | 3188 ft | 265 kts | 282° |
| 2026-04-30 11:55 | 22.02642 | 114.25996 | 2888 ft | 265 kts | 282° |
| 2026-04-30 11:55 | 22.02975 | 114.24024 | 2586 ft | 265 kts | 282° |
| 2026-04-30 11:55 | 22.03304 | 114.22070 | 2302 ft | 267 kts | 281° |
| 2026-04-30 11:55 | 22.03639 | 114.20078 | 2428 ft | 274 kts | 282° |
| 2026-04-30 11:56 | 22.03974 | 114.18083 | 3143 ft | 272 kts | 281° |
| 2026-04-30 11:56 | 22.04309 | 114.16077 | 3687 ft | 270 kts | 281° |
| 2026-04-30 11:56 | 22.04641 | 114.14097 | 3955 ft | 269 kts | 281° |
| 2026-04-30 11:56 | 22.04971 | 114.12117 | 3979 ft | 268 kts | 281° |
| 2026-04-30 11:57 | 22.05300 | 114.10144 | 3979 ft | 267 kts | 281° |
| 2026-04-30 11:57 | 22.05627 | 114.08179 | 3979 ft | 267 kts | 281° |
| 2026-04-30 11:57 | 22.05958 | 114.06187 | 3983 ft | 267 kts | 281° |
| 2026-04-30 11:57 | 22.06282 | 114.04243 | 3982 ft | 267 kts | 281° |
| 2026-04-30 11:58 | 22.06608 | 114.02272 | 3980 ft | 267 kts | 281° |
| 2026-04-30 11:58 | 22.06934 | 114.00307 | 3976 ft | 267 kts | 281° |
| 2026-04-30 11:58 | 22.07262 | 113.98323 | 3975 ft | 267 kts | 281° |
| 2026-04-30 11:58 | 22.07590 | 113.96349 | 3977 ft | 268 kts | 281° |
| 2026-04-30 11:59 | 22.07915 | 113.94382 | 3974 ft | 268 kts | 281° |
| 2026-04-30 11:59 | 22.08243 | 113.92400 | 3980 ft | 269 kts | 282° |
| 2026-04-30 11:59 | 22.08572 | 113.90409 | 3980 ft | 269 kts | 281° |
| 2026-04-30 11:59 | 22.08899 | 113.88438 | 3980 ft | 268 kts | 282° |
| 2026-04-30 12:00 | 22.09229 | 113.86444 | 3980 ft | 267 kts | 282° |
| 2026-04-30 12:00 | 22.09554 | 113.84476 | 3983 ft | 267 kts | 282° |
| 2026-04-30 12:00 | 22.09879 | 113.82508 | 3985 ft | 267 kts | 282° |
| 2026-04-30 12:00 | 22.10205 | 113.80528 | 3986 ft | 267 kts | 282° |
| 2026-04-30 12:01 | 22.10602 | 113.78578 | 3978 ft | 266 kts | 293° |
| 2026-04-30 12:01 | 22.11693 | 113.77010 | 3832 ft | 265 kts | 325° |
| 2026-04-30 12:01 | 22.13333 | 113.76134 | 3445 ft | 266 kts | 339° |
| 2026-04-30 12:01 | 22.15020 | 113.75362 | 3347 ft | 256 kts | 338° |
| 2026-04-30 12:02 | 22.16602 | 113.74605 | 3299 ft | 237 kts | 338° |
| 2026-04-30 12:02 | 22.18074 | 113.73883 | 3251 ft | 225 kts | 337° |
| 2026-04-30 12:02 | 22.19426 | 113.73214 | 3193 ft | 207 kts | 338° |
| 2026-04-30 12:02 | 22.20712 | 113.72575 | 3078 ft | 196 kts | 337° |
| 2026-04-30 12:03 | 22.21921 | 113.71975 | 2969 ft | 181 kts | 337° |
| 2026-04-30 12:03 | 22.23745 | 113.71412 | 2482 ft | 180 kts | 14° |
| 2026-04-30 12:03 | 22.23853 | 113.71440 | 2447 ft | 180 kts | 18° |
| 2026-04-30 12:04 | 22.24881 | 113.72193 | 2110 ft | 177 kts | 44° |
| 2026-04-30 12:04 | 22.25744 | 113.73138 | 2004 ft | 179 kts | 46° |
| 2026-04-30 12:04 | 22.26631 | 113.74089 | 2003 ft | 180 kts | 44° |
| 2026-04-30 12:04 | 22.27522 | 113.75057 | 2001 ft | 180 kts | 52° |
| 2026-04-30 12:05 | 22.28174 | 113.76202 | 2000 ft | 180 kts | 64° |
| 2026-04-30 12:05 | 22.28673 | 113.77440 | 1973 ft | 180 kts | 68° |
| 2026-04-30 12:05 | 22.29109 | 113.78706 | 1773 ft | 175 kts | 70° |
| 2026-04-30 12:05 | 22.29493 | 113.79909 | 1570 ft | 165 kts | 71° |
| 2026-04-30 12:06 | 22.29852 | 113.81047 | 1346 ft | 156 kts | 71° |
| 2026-04-30 12:06 | 22.30205 | 113.82156 | 1159 ft | 154 kts | 70° |
| 2026-04-30 12:06 | 22.30556 | 113.83247 | 962 ft | 155 kts | 70° |
| 2026-04-30 12:06 | 22.30907 | 113.84339 | 763 ft | 155 kts | 70° |
| 2026-04-30 12:07 | 22.31262 | 113.85444 | 561 ft | 155 kts | 69° |
| 2026-04-30 12:07 | 22.31615 | 113.86546 | 380 ft | 155 kts | 69° |
| 2026-04-30 12:07 | 22.31968 | 113.87646 | 193 ft | 156 kts | 69° |
| 2026-04-30 12:07 | 22.32327 | 113.88765 | 27 ft | 153 kts | 69° |
| 2026-04-30 12:08 | 22.32654 | 113.89752 | 9 ft | 120 kts | 71° |
| 2026-04-30 12:08 | 22.32878 | 113.90460 | 9 ft | 82 kts | 72° |
| 2026-04-30 12:08 | 22.33038 | 113.90958 | 9 ft | 62 kts | 71° |
| 2026-04-30 12:08 | 22.33129 | 113.91260 | 9 ft | 13 kts | 97° |
| 2026-04-30 12:09 | 22.33061 | 113.91321 | 9 ft | 14 kts | 162° |
| 2026-04-30 12:09 | 22.32998 | 113.91386 | 9 ft | 13 kts | 84° |
| 2026-04-30 12:09 | 22.33026 | 113.91480 | 9 ft | 13 kts | 70° |
| 2026-04-30 12:09 | 22.33060 | 113.91579 | 9 ft | 14 kts | 71° |
| 2026-04-30 12:10 | 22.33093 | 113.91687 | 9 ft | 15 kts | 72° |
| 2026-04-30 12:10 | 22.33128 | 113.91798 | 9 ft | 16 kts | 70° |
| 2026-04-30 12:10 | 22.33167 | 113.91915 | 9 ft | 16 kts | 71° |
| 2026-04-30 12:10 | 22.33206 | 113.92036 | 9 ft | 17 kts | 71° |
| 2026-04-30 12:11 | 22.33158 | 113.92132 | 9 ft | 17 kts | 163° |
| 2026-04-30 12:11 | 22.33046 | 113.92174 | 9 ft | 17 kts | 161° |
| 2026-04-30 12:11 | 22.32929 | 113.92217 | 9 ft | 17 kts | 161° |
| 2026-04-30 12:11 | 22.32781 | 113.92271 | 9 ft | 31 kts | 161° |
| 2026-04-30 12:12 | 22.32539 | 113.92360 | 9 ft | 36 kts | 161° |
| 2026-04-30 12:12 | 22.32318 | 113.92445 | 10 ft | 24 kts | 160° |
| 2026-04-30 12:12 | 22.32252 | 113.92535 | 12 ft | 17 kts | 76° |
| 2026-04-30 12:12 | 22.32261 | 113.92652 | 14 ft | 15 kts | 130° |
| 2026-04-30 12:13 | 22.32178 | 113.92690 | 21 ft | 10 kts | 164° |
| 2026-04-30 12:13 | 22.32101 | 113.92717 | 26 ft | 18 kts | 161° |
| 2026-04-30 12:13 | 22.31929 | 113.92782 | 29 ft | 27 kts | 163° |
| 2026-04-30 12:13 | 22.31759 | 113.92858 | 31 ft | 25 kts | 161° |
| 2026-04-30 12:14 | 22.31601 | 113.92918 | 35 ft | 22 kts | 160° |
| 2026-04-30 12:14 | 22.31511 | 113.92895 | 37 ft | 9 kts | 197° |
| 2026-04-30 12:14 | 22.31454 | 113.92911 | 38 ft | 0 kts | 158° |
| 2026-04-30 12:14 | 22.31453 | 113.92911 | 38 ft | 0 kts | 158° |
| 2026-04-30 12:15 | 22.31434 | 113.92919 | 39 ft | 5 kts | 160° |
| 2026-04-30 12:15 | 22.31416 | 113.92926 | 39 ft | 0 kts | 160° |